createdAt,value
2023-02-18T00:00:17.366Z,44.28
2023-02-18T00:00:50.994Z,43.83
2023-02-18T00:01:25.985Z,39.47
2023-02-18T00:02:00.271Z,45.33
2023-02-18T00:02:34.939Z,41.05
2023-02-18T00:03:08.593Z,40.97
2023-02-18T00:03:43.140Z,44.75
2023-02-18T00:04:17.351Z,39.40
2023-02-18T00:04:51.998Z,41.38
2023-02-18T00:05:25.585Z,42.47
2023-02-18T00:06:00.693Z,44.35
2023-02-18T00:06:36.353Z,41.55
2023-02-18T00:07:11.061Z,41.42
2023-02-18T00:07:45.774Z,41.65
2023-02-18T00:08:19.745Z,47.35
2023-02-18T00:08:54.821Z,42.55
2023-02-18T00:09:29.489Z,43.58
2023-02-18T00:10:02.738Z,38.65
2023-02-18T00:10:37.412Z,42.28
2023-02-18T00:11:13.471Z,40.03
2023-02-18T00:11:47.181Z,43.17
2023-02-18T00:12:21.276Z,48.75
2023-02-18T00:12:56.639Z,46.38
2023-02-18T00:13:31.503Z,38.40
2023-02-18T00:14:09.560Z,43.08
2023-02-18T00:14:44.324Z,42.88
2023-02-18T00:15:19.057Z,43.30
2023-02-18T00:15:53.754Z,43.38
2023-02-18T00:16:30.025Z,39.83
2023-02-18T00:17:04.090Z,44.45
2023-02-18T00:17:39.213Z,40.70
2023-02-18T00:18:14.547Z,38.78
2023-02-18T00:18:49.253Z,44.72
2023-02-18T00:19:24.533Z,41.95
2023-02-18T00:19:58.967Z,45.25
2023-02-18T00:20:34.391Z,42.50
2023-02-18T00:21:09.541Z,39.22
2023-02-18T00:21:44.551Z,43.22
2023-02-18T00:22:20.613Z,46.17
2023-02-18T00:22:54.562Z,40.42
2023-02-18T00:23:29.400Z,40.22
2023-02-18T00:24:04.882Z,38.63
2023-02-18T00:24:39.334Z,40.58
2023-02-18T00:25:13.432Z,46.55
2023-02-18T00:25:49.625Z,40.42
2023-02-18T00:26:23.527Z,47.60
2023-02-18T00:26:58.129Z,46.92
2023-02-18T00:27:33.647Z,39.90
2023-02-18T00:28:09.329Z,45.13
2023-02-18T00:28:43.380Z,38.13
2023-02-18T00:29:18.657Z,40.25
2023-02-18T00:29:51.648Z,45.10
2023-02-18T00:30:26.400Z,43.83
2023-02-18T00:31:08.402Z,46.25
2023-02-18T00:31:42.478Z,44.22
2023-02-18T00:32:16.947Z,42.45
2023-02-18T00:32:51.726Z,45.20
2023-02-18T00:33:25.327Z,46.85
2023-02-18T00:33:59.589Z,43.10
2023-02-18T00:34:34.963Z,44.28
2023-02-18T00:35:11.191Z,44.25
2023-02-18T00:35:44.283Z,43.65
2023-02-18T00:36:20.546Z,43.15
2023-02-18T00:36:55.095Z,48.42
2023-02-18T00:37:28.813Z,41.45
2023-02-18T00:38:04.207Z,40.50
2023-02-18T00:38:36.992Z,49.25
2023-02-18T00:39:13.891Z,44.40
2023-02-18T00:39:48.690Z,45.47
2023-02-18T00:40:23.872Z,46.25
2023-02-18T00:41:00.569Z,44.05
2023-02-18T00:41:34.236Z,40.05
2023-02-18T00:42:07.366Z,43.60
2023-02-18T00:42:43.448Z,37.80
2023-02-18T00:43:16.797Z,54.75
2023-02-18T00:43:52.142Z,42.83
2023-02-18T00:44:27.325Z,45.70
2023-02-18T00:45:04.165Z,42.55
2023-02-18T00:45:38.363Z,41.10
2023-02-18T00:46:13.157Z,48.20
2023-02-18T00:46:48.858Z,41.38
2023-02-18T00:47:22.147Z,43.17
2023-02-18T00:47:56.145Z,44.08
2023-02-18T00:48:33.043Z,45.72
2023-02-18T00:49:08.464Z,38.75
2023-02-18T00:49:43.351Z,43.33
2023-02-18T00:50:16.924Z,47.05
2023-02-18T00:50:51.468Z,39.83
2023-02-18T00:51:26.644Z,42.75
2023-02-18T00:51:59.694Z,44.55
2023-02-18T00:52:34.346Z,41.45
2023-02-18T00:53:09.438Z,44.53
2023-02-18T00:53:43.269Z,41.78
2023-02-18T00:54:16.233Z,44.05
2023-02-18T00:54:50.521Z,43.58
2023-02-18T00:55:24.499Z,45.10
2023-02-18T00:56:00.026Z,48.72
2023-02-18T00:56:34.823Z,40.45
2023-02-18T00:57:09.573Z,45.15
2023-02-18T00:57:44.002Z,43.05
2023-02-18T00:58:19.194Z,45.05
2023-02-18T00:58:53.506Z,42.35
2023-02-18T00:59:26.520Z,42.05
2023-02-18T01:00:01.887Z,36.17
2023-02-18T01:00:38.077Z,39.30
2023-02-18T01:01:12.185Z,38.47
2023-02-18T01:01:50.150Z,39.47
2023-02-18T01:02:24.760Z,41.47
2023-02-18T01:02:59.520Z,36.10
2023-02-18T01:03:33.483Z,34.58
2023-02-18T01:04:07.279Z,47.88
2023-02-18T01:04:41.926Z,39.72
2023-02-18T01:05:16.645Z,41.53
2023-02-18T01:05:50.944Z,42.20
2023-02-18T01:06:26.430Z,37.40
2023-02-18T01:07:00.537Z,40.72
2023-02-18T01:07:35.314Z,42.05
2023-02-18T01:08:10.530Z,39.00
2023-02-18T01:08:44.939Z,46.05
2023-02-18T01:09:18.481Z,39.92
2023-02-18T01:09:53.780Z,42.42
2023-02-18T01:10:27.588Z,42.13
2023-02-18T01:11:03.145Z,43.92
2023-02-18T01:11:38.443Z,44.35
2023-02-18T01:12:12.883Z,45.42
2023-02-18T01:12:46.449Z,41.13
2023-02-18T01:13:21.042Z,43.72
2023-02-18T01:13:54.058Z,44.10
2023-02-18T01:14:30.204Z,42.10
2023-02-18T01:15:05.050Z,43.70
2023-02-18T01:15:38.649Z,43.47
2023-02-18T01:16:13.180Z,46.15
2023-02-18T01:16:46.775Z,41.25
2023-02-18T01:17:20.802Z,44.55
2023-02-18T01:17:55.000Z,39.10
2023-02-18T01:18:28.527Z,42.83
2023-02-18T01:19:02.218Z,47.08
2023-02-18T01:19:36.794Z,42.38
2023-02-18T01:20:10.609Z,44.80
2023-02-18T01:20:45.253Z,43.97
2023-02-18T01:21:20.840Z,46.25
2023-02-18T01:21:54.620Z,39.90
2023-02-18T01:22:29.470Z,47.72
2023-02-18T01:23:04.021Z,47.72
2023-02-18T01:23:37.826Z,41.20
2023-02-18T01:24:11.731Z,42.65
2023-02-18T01:24:46.627Z,39.47
2023-02-18T01:25:20.499Z,40.08
2023-02-18T01:25:54.275Z,43.08
2023-02-18T01:26:31.062Z,42.50
2023-02-18T01:27:05.095Z,43.67
2023-02-18T01:27:38.822Z,39.80
2023-02-18T01:28:13.622Z,40.83
2023-02-18T01:28:47.713Z,41.60
2023-02-18T01:29:22.328Z,42.80
2023-02-18T01:29:57.467Z,39.33
2023-02-18T01:30:30.770Z,47.03
2023-02-18T01:31:07.290Z,41.38
2023-02-18T01:31:41.980Z,43.60
2023-02-18T01:32:16.470Z,44.40
2023-02-18T01:32:50.727Z,40.60
2023-02-18T01:33:25.379Z,39.20
2023-02-18T01:34:00.373Z,45.72
2023-02-18T01:34:36.704Z,39.70
2023-02-18T01:35:13.748Z,41.10
2023-02-18T01:35:46.587Z,40.42
2023-02-18T01:36:20.963Z,45.50
2023-02-18T01:36:54.378Z,38.80
2023-02-18T01:37:27.740Z,37.58
2023-02-18T01:38:01.567Z,42.35
2023-02-18T01:38:36.132Z,42.70
2023-02-18T01:39:10.698Z,37.75
2023-02-18T01:39:46.676Z,39.35
2023-02-18T01:40:21.358Z,41.45
2023-02-18T01:40:55.048Z,44.97
2023-02-18T01:41:31.128Z,42.55
2023-02-18T01:42:04.340Z,38.35
2023-02-18T01:42:38.444Z,40.67
2023-02-18T01:43:11.674Z,38.45
2023-02-18T01:43:45.817Z,39.78
2023-02-18T01:44:20.172Z,48.70
2023-02-18T01:44:54.048Z,41.15
2023-02-18T01:45:45.919Z,46.65
2023-02-18T01:46:21.491Z,43.08
2023-02-18T01:46:56.070Z,42.60
2023-02-18T01:47:30.169Z,36.70
2023-02-18T01:48:08.019Z,39.25
2023-02-18T01:48:44.037Z,43.20
2023-02-18T01:49:20.814Z,41.65
2023-02-18T01:49:54.116Z,41.95
2023-02-18T01:50:29.040Z,46.35
2023-02-18T01:51:06.189Z,41.92
2023-02-18T01:51:41.901Z,41.13
2023-02-18T01:52:18.247Z,46.90
2023-02-18T01:52:51.378Z,46.15
2023-02-18T01:53:27.682Z,44.47
2023-02-18T01:54:06.683Z,45.25
2023-02-18T01:54:42.898Z,34.08
2023-02-18T01:55:16.598Z,46.60
2023-02-18T01:55:50.377Z,46.72
2023-02-18T01:56:27.164Z,50.67
2023-02-18T01:57:03.795Z,47.50
2023-02-18T01:57:40.750Z,52.17
2023-02-18T01:58:14.884Z,55.47
2023-02-18T01:58:49.471Z,58.65
2023-02-18T01:59:28.336Z,51.17
2023-02-18T02:00:05.158Z,49.08
2023-02-18T02:00:48.327Z,53.05
2023-02-18T02:01:23.592Z,50.50
2023-02-18T02:01:58.337Z,61.20
2023-02-18T02:02:33.568Z,55.65
2023-02-18T02:03:08.882Z,45.65
2023-02-18T02:03:42.514Z,48.60
2023-02-18T02:04:16.021Z,50.40
2023-02-18T02:04:50.420Z,54.20
2023-02-18T02:05:24.777Z,50.20
2023-02-18T02:05:58.916Z,52.10
2023-02-18T02:06:34.018Z,50.78
2023-02-18T02:07:07.950Z,52.42
2023-02-18T02:07:42.863Z,49.67
2023-02-18T02:08:15.934Z,47.35
2023-02-18T02:08:51.185Z,48.85
2023-02-18T02:09:25.858Z,45.08
2023-02-18T02:09:59.900Z,48.65
2023-02-18T02:10:41.608Z,43.42
2023-02-18T02:11:22.828Z,46.67
2023-02-18T02:12:12.037Z,45.33
2023-02-18T02:12:53.161Z,43.78
2023-02-18T02:13:31.026Z,42.95
2023-02-18T02:14:13.628Z,47.33
2023-02-18T02:14:58.609Z,47.95
2023-02-18T02:15:36.069Z,46.63
2023-02-18T02:16:14.577Z,43.35
2023-02-18T02:16:54.227Z,44.55
2023-02-18T02:17:34.037Z,43.92
2023-02-18T02:18:48.803Z,39.78
2023-02-18T02:19:46.599Z,40.25
2023-02-18T02:20:31.063Z,41.70
2023-02-18T02:21:18.975Z,47.90
2023-02-18T02:22:17.245Z,33.28
2023-02-18T02:23:17.823Z,47.08
2023-02-18T02:24:12.676Z,44.00
2023-02-18T02:25:02.234Z,38.45
2023-02-18T02:25:57.059Z,37.55
2023-02-18T02:26:52.009Z,43.38
2023-02-18T02:27:40.109Z,40.80
2023-02-18T02:28:45.321Z,42.38
2023-02-18T02:29:42.247Z,42.10
2023-02-18T02:30:48.885Z,35.80
2023-02-18T02:31:50.492Z,43.58
2023-02-18T02:32:47.775Z,41.30
2023-02-18T02:33:30.876Z,46.95
2023-02-18T02:34:30.682Z,38.78
2023-02-18T02:35:07.370Z,42.17
2023-02-18T02:35:43.390Z,47.75
2023-02-18T02:36:20.591Z,47.85
2023-02-18T02:36:57.088Z,45.22
2023-02-18T02:37:36.990Z,46.45
2023-02-18T02:38:14.533Z,36.45
2023-02-18T02:38:54.958Z,51.95
2023-02-18T02:39:32.457Z,43.75
2023-02-18T02:40:11.047Z,45.03
2023-02-18T02:40:48.449Z,44.03
2023-02-18T02:41:27.764Z,39.97
2023-02-18T02:42:05.020Z,43.38
2023-02-18T02:42:48.539Z,45.95
2023-02-18T02:43:29.854Z,46.40
2023-02-18T02:44:09.651Z,34.40
2023-02-18T02:44:48.490Z,45.15
2023-02-18T02:45:25.902Z,47.42
2023-02-18T02:46:01.979Z,50.40
2023-02-18T02:46:39.085Z,46.25
2023-02-18T02:47:15.449Z,47.67
2023-02-18T02:47:51.794Z,46.42
2023-02-18T02:48:31.529Z,44.88
2023-02-18T02:49:10.841Z,54.00
2023-02-18T02:49:51.244Z,46.75
2023-02-18T02:50:28.959Z,43.17
2023-02-18T02:51:06.168Z,52.80
2023-02-18T02:51:44.905Z,48.13
2023-02-18T02:52:22.036Z,47.17
2023-02-18T02:52:59.750Z,52.72
2023-02-18T02:53:36.464Z,56.13
2023-02-18T02:54:12.454Z,48.50
2023-02-18T02:54:46.898Z,49.45
2023-02-18T02:55:22.365Z,52.95
2023-02-18T02:55:57.690Z,53.58
2023-02-18T02:56:33.099Z,52.92
2023-02-18T02:57:11.620Z,48.22
2023-02-18T02:57:55.110Z,47.25
2023-02-18T02:58:33.833Z,54.75
2023-02-18T02:59:10.989Z,58.08
2023-02-18T02:59:51.294Z,53.63
2023-02-18T03:00:30.126Z,55.63
2023-02-18T03:01:11.024Z,52.65
2023-02-18T03:01:51.301Z,47.92
2023-02-18T03:02:31.394Z,49.97
2023-02-18T03:03:18.932Z,52.20
2023-02-18T03:04:10.301Z,56.67
2023-02-18T03:04:56.715Z,53.85
2023-02-18T03:05:35.645Z,52.88
2023-02-18T03:06:28.355Z,53.00
2023-02-18T03:07:13.496Z,50.08
2023-02-18T03:07:56.752Z,51.45
2023-02-18T03:08:38.501Z,54.05
2023-02-18T03:09:16.854Z,60.22
2023-02-18T03:09:58.492Z,60.33
2023-02-18T03:10:43.736Z,53.10
2023-02-18T03:11:19.996Z,52.72
2023-02-18T03:11:55.978Z,56.53
2023-02-18T03:12:38.668Z,53.35
2023-02-18T03:13:17.673Z,50.33
2023-02-18T03:13:59.569Z,48.10
2023-02-18T03:14:46.467Z,51.33
2023-02-18T03:15:23.748Z,50.85
2023-02-18T03:16:01.530Z,54.17
2023-02-18T03:16:37.762Z,55.90
2023-02-18T03:17:15.190Z,52.58
2023-02-18T03:17:54.017Z,52.63
2023-02-18T03:18:33.899Z,51.58
2023-02-18T03:19:46.421Z,48.17
2023-02-18T03:20:27.724Z,52.80
2023-02-18T03:21:06.540Z,55.08
2023-02-18T03:21:45.377Z,49.38
2023-02-18T03:22:22.761Z,52.53
2023-02-18T03:22:58.939Z,52.00
2023-02-18T03:23:36.862Z,56.17
2023-02-18T03:24:12.694Z,50.65
2023-02-18T03:24:48.208Z,58.13
2023-02-18T03:25:23.270Z,57.25
2023-02-18T03:25:59.520Z,52.90
2023-02-18T03:26:34.265Z,52.63
2023-02-18T03:27:11.579Z,52.00
2023-02-18T03:27:48.158Z,51.00
2023-02-18T03:28:22.521Z,48.67
2023-02-18T03:28:58.460Z,54.65
2023-02-18T03:29:33.441Z,49.90
2023-02-18T03:30:11.996Z,58.53
2023-02-18T03:30:48.071Z,51.42
2023-02-18T03:31:24.245Z,50.92
2023-02-18T03:32:00.578Z,50.55
2023-02-18T03:32:37.041Z,54.20
2023-02-18T03:33:12.294Z,53.90
2023-02-18T03:33:48.086Z,54.80
2023-02-18T03:34:26.155Z,45.80
2023-02-18T03:35:02.090Z,49.58
2023-02-18T03:35:40.378Z,53.60
2023-02-18T03:36:15.701Z,51.42
2023-02-18T03:36:51.817Z,47.75
2023-02-18T03:37:25.398Z,52.33
2023-02-18T03:38:03.900Z,48.97
2023-02-18T03:38:39.837Z,47.58
2023-02-18T03:39:16.312Z,48.38
2023-02-18T03:39:55.410Z,47.65
2023-02-18T03:40:29.678Z,47.97
2023-02-18T03:41:03.325Z,53.88
2023-02-18T03:41:38.744Z,53.33
2023-02-18T03:42:13.702Z,52.60
2023-02-18T03:42:48.256Z,54.50
2023-02-18T03:43:21.811Z,51.60
2023-02-18T03:44:01.151Z,51.35
2023-02-18T03:44:36.709Z,47.72
2023-02-18T03:45:10.267Z,47.90
2023-02-18T03:45:44.779Z,55.25
2023-02-18T03:46:19.539Z,51.47
2023-02-18T03:46:54.572Z,51.95
2023-02-18T03:47:28.859Z,52.95
2023-02-18T03:48:04.790Z,53.38
2023-02-18T03:48:38.638Z,54.25
2023-02-18T03:49:13.979Z,60.22
2023-02-18T03:49:48.553Z,59.78
2023-02-18T03:50:22.429Z,55.22
2023-02-18T03:50:58.559Z,59.00
2023-02-18T03:51:32.797Z,54.38
2023-02-18T03:52:06.938Z,59.78
2023-02-18T03:52:42.042Z,59.60
2023-02-18T03:53:17.903Z,58.80
2023-02-18T03:53:53.724Z,57.42
2023-02-18T03:54:27.378Z,57.25
2023-02-18T03:55:03.924Z,61.67
2023-02-18T03:55:38.013Z,53.97
2023-02-18T03:56:12.216Z,57.08
2023-02-18T03:56:47.208Z,58.88
2023-02-18T03:57:21.191Z,57.13
2023-02-18T03:57:55.352Z,54.78
2023-02-18T03:58:30.143Z,61.75
2023-02-18T03:59:04.526Z,54.17
2023-02-18T03:59:38.976Z,62.50
2023-02-18T04:00:15.138Z,57.53
2023-02-18T04:00:49.375Z,61.80
2023-02-18T04:01:24.756Z,59.42
2023-02-18T04:01:58.794Z,61.88
2023-02-18T04:02:33.296Z,63.03
2023-02-18T04:03:09.167Z,63.75
2023-02-18T04:03:43.275Z,59.65
2023-02-18T04:04:17.795Z,61.53
2023-02-18T04:04:53.777Z,59.03
2023-02-18T04:05:28.232Z,58.85
2023-02-18T04:06:03.853Z,56.90
2023-02-18T04:06:38.591Z,54.28
2023-02-18T04:07:12.738Z,56.38
2023-02-18T04:07:47.082Z,53.67
2023-02-18T04:08:22.780Z,60.53
2023-02-18T04:08:56.298Z,63.20
2023-02-18T04:09:29.918Z,56.20
2023-02-18T04:10:04.409Z,59.67
2023-02-18T04:10:37.475Z,57.00
2023-02-18T04:11:11.140Z,54.70
2023-02-18T04:11:46.638Z,53.78
2023-02-18T04:12:20.847Z,58.00
2023-02-18T04:12:55.230Z,63.97
2023-02-18T04:13:30.125Z,55.95
2023-02-18T04:14:03.877Z,57.65
2023-02-18T04:14:38.113Z,61.45
2023-02-18T04:15:14.683Z,58.60
2023-02-18T04:15:51.125Z,52.13
2023-02-18T04:16:25.794Z,49.35
2023-02-18T04:17:01.933Z,54.75
2023-02-18T04:17:36.808Z,53.85
2023-02-18T04:18:12.561Z,53.00
2023-02-18T04:18:46.926Z,52.55
2023-02-18T04:19:21.510Z,48.67
2023-02-18T04:19:55.450Z,54.10
2023-02-18T04:20:29.538Z,47.38
2023-02-18T04:21:06.211Z,50.47
2023-02-18T04:21:40.005Z,47.15
2023-02-18T04:22:14.268Z,48.35
2023-02-18T04:22:49.902Z,44.10
2023-02-18T04:23:23.674Z,47.72
2023-02-18T04:23:57.537Z,48.08
2023-02-18T04:24:32.284Z,48.28
2023-02-18T04:25:06.798Z,44.13
2023-02-18T04:25:40.588Z,46.08
2023-02-18T04:26:16.318Z,46.85
2023-02-18T04:26:50.792Z,48.30
2023-02-18T04:27:25.332Z,48.92
2023-02-18T04:28:00.222Z,51.08
2023-02-18T04:28:33.857Z,46.90
2023-02-18T04:29:07.778Z,51.42
2023-02-18T04:29:43.811Z,50.45
2023-02-18T04:30:19.016Z,47.78
2023-02-18T04:30:53.133Z,46.78
2023-02-18T04:31:28.494Z,47.30
2023-02-18T04:32:02.237Z,47.70
2023-02-18T04:32:36.374Z,45.25
2023-02-18T04:33:11.168Z,41.38
2023-02-18T04:33:45.464Z,45.05
2023-02-18T04:34:19.876Z,44.83
2023-02-18T04:34:55.602Z,43.63
2023-02-18T04:35:30.702Z,51.78
2023-02-18T04:36:06.505Z,46.40
2023-02-18T04:36:41.819Z,44.55
2023-02-18T04:37:18.140Z,42.17
2023-02-18T04:37:52.025Z,43.55
2023-02-18T04:38:26.993Z,40.40
2023-02-18T04:39:01.553Z,47.45
2023-02-18T04:39:37.081Z,42.08
2023-02-18T04:40:10.772Z,40.63
2023-02-18T04:40:45.571Z,39.40
2023-02-18T04:41:18.617Z,47.58
2023-02-18T04:41:53.403Z,35.10
2023-02-18T04:42:26.832Z,45.95
2023-02-18T04:43:00.869Z,41.72
2023-02-18T04:43:36.449Z,41.47
2023-02-18T04:44:11.808Z,52.10
2023-02-18T04:44:47.268Z,40.55
2023-02-18T04:45:22.469Z,44.30
2023-02-18T04:45:56.756Z,41.58
2023-02-18T04:46:30.738Z,49.30
2023-02-18T04:47:06.175Z,46.92
2023-02-18T04:47:39.653Z,44.70
2023-02-18T04:48:13.273Z,41.40
2023-02-18T04:48:47.928Z,43.35
2023-02-18T04:49:21.312Z,38.10
2023-02-18T04:49:56.026Z,37.70
2023-02-18T04:50:30.676Z,45.42
2023-02-18T04:51:08.378Z,41.38
2023-02-18T04:51:43.794Z,41.47
2023-02-18T04:52:17.371Z,40.33
2023-02-18T04:52:52.134Z,39.08
2023-02-18T04:53:27.487Z,40.03
2023-02-18T04:54:00.731Z,37.67
2023-02-18T04:54:34.340Z,41.92
2023-02-18T04:55:10.420Z,38.30
2023-02-18T04:55:44.519Z,38.38
2023-02-18T04:56:17.701Z,42.03
2023-02-18T04:56:52.557Z,39.05
2023-02-18T04:57:26.200Z,37.25
2023-02-18T04:58:00.862Z,41.17
2023-02-18T04:58:40.464Z,40.50
2023-02-18T04:59:17.006Z,35.80
2023-02-18T04:59:52.280Z,35.20
2023-02-18T05:00:25.728Z,35.75
2023-02-18T05:01:00.224Z,40.47
2023-02-18T05:01:35.052Z,45.15
2023-02-18T05:02:08.221Z,37.60
2023-02-18T05:02:42.219Z,42.03
2023-02-18T05:03:16.932Z,38.05
2023-02-18T05:03:50.572Z,44.35
2023-02-18T05:04:23.813Z,39.08
2023-02-18T05:04:58.444Z,40.38
2023-02-18T05:05:32.085Z,48.63
2023-02-18T05:06:09.053Z,39.85
2023-02-18T05:06:44.653Z,36.88
2023-02-18T05:07:19.194Z,35.83
2023-02-18T05:07:53.671Z,41.25
2023-02-18T05:08:29.228Z,39.30
2023-02-18T05:09:03.560Z,39.22
2023-02-18T05:09:38.317Z,45.50
2023-02-18T05:10:17.136Z,45.42
2023-02-18T05:10:50.176Z,39.28
2023-02-18T05:11:23.562Z,40.45
2023-02-18T05:11:58.717Z,38.88
2023-02-18T05:12:33.344Z,36.88
2023-02-18T05:13:07.934Z,36.70
2023-02-18T05:13:43.000Z,38.70
2023-02-18T05:14:16.732Z,39.33
2023-02-18T05:14:51.100Z,40.20
2023-02-18T05:15:25.776Z,41.05
2023-02-18T05:16:00.952Z,39.25
2023-02-18T05:16:34.222Z,39.15
2023-02-18T05:17:10.295Z,36.33
2023-02-18T05:17:43.968Z,36.08
2023-02-18T05:18:17.144Z,38.55
2023-02-18T05:18:52.237Z,35.05
2023-02-18T05:19:26.245Z,35.95
2023-02-18T05:20:00.263Z,33.33
2023-02-18T05:20:36.054Z,40.33
2023-02-18T05:21:12.316Z,41.08
2023-02-18T05:21:45.393Z,45.83
2023-02-18T05:22:21.286Z,48.30
2023-02-18T05:22:55.847Z,54.80
2023-02-18T05:23:30.678Z,37.45
2023-02-18T05:24:06.019Z,38.20
2023-02-18T05:24:41.057Z,37.88
2023-02-18T05:25:15.453Z,40.00
2023-02-18T05:25:51.324Z,37.08
2023-02-18T05:26:26.571Z,40.50
2023-02-18T05:27:01.370Z,34.90
2023-02-18T05:27:38.312Z,38.28
2023-02-18T05:28:13.393Z,38.50
2023-02-18T05:28:47.540Z,37.80
2023-02-18T05:29:24.558Z,40.55
2023-02-18T05:29:58.757Z,36.97
2023-02-18T05:30:33.882Z,40.95
2023-02-18T05:31:08.626Z,36.88
2023-02-18T05:31:44.022Z,36.72
2023-02-18T05:32:17.631Z,39.08
2023-02-18T05:32:53.085Z,47.90
2023-02-18T05:33:26.197Z,43.13
2023-02-18T05:34:01.071Z,41.95
2023-02-18T05:34:35.894Z,40.38
2023-02-18T05:35:09.848Z,41.28
2023-02-18T05:35:42.982Z,41.17
2023-02-18T05:36:18.944Z,43.50
2023-02-18T05:36:53.925Z,38.53
2023-02-18T05:37:27.761Z,42.50
2023-02-18T05:38:02.572Z,41.33
2023-02-18T05:38:37.827Z,45.67
2023-02-18T05:39:12.068Z,40.90
2023-02-18T05:39:46.337Z,43.78
2023-02-18T05:40:21.454Z,41.75
2023-02-18T05:40:55.947Z,42.22
2023-02-18T05:41:30.109Z,47.92
2023-02-18T05:42:04.758Z,43.22
2023-02-18T05:42:39.227Z,43.13
2023-02-18T05:43:13.045Z,39.03
2023-02-18T05:44:17.007Z,38.55
2023-02-18T05:44:51.764Z,40.67
2023-02-18T05:45:25.289Z,35.97
2023-02-18T05:45:58.262Z,37.78
2023-02-18T05:46:32.588Z,45.83
2023-02-18T05:47:11.269Z,39.92
2023-02-18T05:47:45.210Z,45.95
2023-02-18T05:48:18.873Z,44.33
2023-02-18T05:48:53.512Z,41.75
2023-02-18T05:49:27.599Z,41.38
2023-02-18T05:50:01.199Z,42.55
2023-02-18T05:50:35.409Z,41.58
2023-02-18T05:51:09.837Z,42.97
2023-02-18T05:51:45.089Z,41.58
2023-02-18T05:52:19.797Z,40.30
2023-02-18T05:52:53.788Z,42.55
2023-02-18T05:53:28.769Z,41.47
2023-02-18T05:54:03.010Z,38.25
2023-02-18T05:54:37.353Z,44.83
2023-02-18T05:55:12.451Z,39.65
2023-02-18T05:55:45.907Z,37.95
2023-02-18T05:56:20.677Z,44.40
2023-02-18T05:56:55.387Z,42.63
2023-02-18T05:57:30.057Z,46.03
2023-02-18T05:58:04.182Z,43.65
2023-02-18T05:58:39.653Z,39.80
2023-02-18T05:59:13.245Z,42.38
2023-02-18T05:59:48.734Z,45.28
2023-02-18T06:00:22.621Z,46.88
2023-02-18T06:00:56.791Z,43.70
2023-02-18T06:01:33.532Z,42.60
2023-02-18T06:02:06.900Z,40.47
2023-02-18T06:02:41.770Z,39.20
2023-02-18T06:03:16.754Z,33.83
2023-02-18T06:03:52.238Z,41.80
2023-02-18T06:04:26.934Z,39.72
2023-02-18T06:05:01.024Z,34.20
2023-02-18T06:05:35.099Z,35.35
2023-02-18T06:06:10.193Z,37.92
2023-02-18T06:06:47.222Z,36.65
2023-02-18T06:07:21.299Z,33.70
2023-02-18T06:07:56.854Z,34.17
2023-02-18T06:08:31.357Z,34.97
2023-02-18T06:09:05.831Z,34.47
2023-02-18T06:09:40.292Z,36.53
2023-02-18T06:10:14.563Z,38.25
2023-02-18T06:10:48.589Z,35.22
2023-02-18T06:11:23.425Z,34.67
2023-02-18T06:11:57.104Z,33.20
2023-02-18T06:12:32.483Z,33.00
2023-02-18T06:13:05.537Z,32.88
2023-02-18T06:13:39.879Z,31.60
2023-02-18T06:14:14.129Z,31.90
2023-02-18T06:14:47.765Z,33.42
2023-02-18T06:15:21.979Z,28.38
2023-02-18T06:15:57.117Z,32.30
2023-02-18T06:16:31.729Z,32.08
2023-02-18T06:17:06.232Z,36.13
2023-02-18T06:17:41.850Z,34.17
2023-02-18T06:18:14.913Z,31.60
2023-02-18T06:18:48.571Z,34.33
2023-02-18T06:19:24.965Z,33.28
2023-02-18T06:19:59.019Z,36.22
2023-02-18T06:20:33.141Z,33.25
2023-02-18T06:21:08.406Z,31.67
2023-02-18T06:21:43.092Z,32.42
2023-02-18T06:22:19.778Z,28.15
2023-02-18T06:22:53.926Z,29.63
2023-02-18T06:23:28.054Z,32.65
2023-02-18T06:24:02.886Z,28.90
2023-02-18T06:24:37.164Z,28.95
2023-02-18T06:25:12.507Z,33.90
2023-02-18T06:25:47.033Z,31.17
2023-02-18T06:26:20.840Z,32.33
2023-02-18T06:26:56.222Z,32.28
2023-02-18T06:27:30.345Z,30.17
2023-02-18T06:28:03.961Z,28.27
2023-02-18T06:28:39.091Z,27.17
2023-02-18T06:29:12.652Z,26.23
2023-02-18T06:29:46.461Z,28.38
2023-02-18T06:30:24.355Z,28.48
2023-02-18T06:31:02.961Z,29.70
2023-02-18T06:32:01.243Z,31.38
2023-02-18T06:32:35.966Z,25.98
2023-02-18T06:33:10.125Z,25.25
2023-02-18T06:33:47.023Z,22.85
2023-02-18T06:34:20.825Z,24.52
2023-02-18T06:34:55.575Z,26.23
2023-02-18T06:35:31.756Z,28.60
2023-02-18T06:36:08.542Z,26.80
2023-02-18T06:36:45.057Z,20.65
2023-02-18T06:37:21.217Z,24.60
2023-02-18T06:37:55.249Z,23.98
2023-02-18T06:38:31.773Z,23.40
2023-02-18T06:39:08.667Z,25.63
2023-02-18T06:39:42.729Z,21.17
2023-02-18T06:41:10.934Z,23.52
2023-02-18T06:41:46.931Z,20.60
2023-02-18T06:42:21.806Z,21.30
2023-02-18T06:43:21.804Z,24.60
2023-02-18T06:43:55.445Z,19.13
2023-02-18T06:44:29.378Z,22.80
2023-02-18T06:45:06.816Z,21.60
2023-02-18T06:45:40.019Z,18.52
2023-02-18T06:46:28.281Z,22.38
2023-02-18T06:47:05.368Z,17.50
2023-02-18T06:47:39.394Z,23.27
2023-02-18T06:48:13.942Z,17.40
2023-02-18T06:48:49.321Z,21.35
2023-02-18T06:49:22.909Z,19.92
2023-02-18T06:49:57.121Z,22.17
2023-02-18T06:50:32.174Z,19.58
2023-02-18T06:51:07.436Z,17.20
2023-02-18T06:51:46.914Z,17.52
2023-02-18T06:52:31.253Z,15.30
2023-02-18T06:53:05.157Z,19.90
2023-02-18T06:53:40.661Z,20.05
2023-02-18T06:54:14.924Z,14.93
2023-02-18T06:54:47.866Z,18.00
2023-02-18T06:55:23.193Z,18.45
2023-02-18T06:55:57.427Z,18.85
2023-02-18T06:56:31.324Z,17.17
2023-02-18T06:57:06.803Z,16.10
2023-02-18T06:57:47.268Z,16.92
2023-02-18T06:58:24.032Z,19.42
2023-02-18T06:58:59.964Z,18.10
2023-02-18T06:59:37.219Z,16.52
2023-02-18T07:00:10.726Z,17.75
2023-02-18T07:00:49.802Z,16.98
2023-02-18T07:01:58.455Z,15.30
2023-02-18T07:02:33.267Z,19.13
2023-02-18T07:03:09.002Z,17.80
2023-02-18T07:03:45.032Z,14.38
2023-02-18T07:04:19.747Z,17.00
2023-02-18T07:04:54.017Z,15.80
2023-02-18T07:05:28.791Z,17.02
2023-02-18T07:06:03.987Z,16.98
2023-02-18T07:06:38.225Z,16.15
2023-02-18T07:07:13.910Z,17.40
2023-02-18T07:07:50.066Z,18.25
2023-02-18T07:08:24.889Z,17.52
2023-02-18T07:09:00.673Z,18.23
2023-02-18T07:09:35.231Z,17.00
2023-02-18T07:10:10.291Z,14.40
2023-02-18T07:10:45.200Z,17.38
2023-02-18T07:11:18.772Z,14.15
2023-02-18T07:11:52.674Z,17.42
2023-02-18T07:12:28.005Z,14.57
2023-02-18T07:13:02.032Z,15.55
2023-02-18T07:13:36.261Z,16.48
2023-02-18T07:14:11.606Z,16.52
2023-02-18T07:14:46.510Z,16.52
2023-02-18T07:15:24.863Z,17.83
2023-02-18T07:16:00.921Z,13.73
2023-02-18T07:16:35.625Z,17.75
2023-02-18T07:17:10.030Z,15.15
2023-02-18T07:17:45.535Z,15.15
2023-02-18T07:18:19.060Z,16.52
2023-02-18T07:18:54.006Z,15.98
2023-02-18T07:19:28.587Z,13.73
2023-02-18T07:20:02.539Z,16.13
2023-02-18T07:20:37.602Z,12.68
2023-02-18T07:21:12.832Z,14.52
2023-02-18T07:21:48.089Z,17.00
2023-02-18T07:22:21.206Z,14.02
2023-02-18T07:22:57.140Z,16.90
2023-02-18T07:23:31.529Z,15.77
2023-02-18T07:24:07.240Z,15.07
2023-02-18T07:24:43.382Z,13.32
2023-02-18T07:25:18.441Z,14.70
2023-02-18T07:25:54.333Z,14.75
2023-02-18T07:26:29.780Z,13.88
2023-02-18T07:27:03.435Z,16.75
2023-02-18T07:27:38.861Z,15.57
2023-02-18T07:28:12.515Z,16.92
2023-02-18T07:28:48.720Z,13.68
2023-02-18T07:29:23.226Z,15.18
2023-02-18T07:29:59.565Z,12.55
2023-02-18T07:30:33.279Z,14.45
2023-02-18T07:31:09.056Z,13.85
2023-02-18T07:31:42.384Z,16.42
2023-02-18T07:32:16.586Z,16.40
2023-02-18T07:32:51.456Z,16.95
2023-02-18T07:33:25.700Z,14.98
2023-02-18T07:34:00.330Z,12.40
2023-02-18T07:34:35.786Z,14.30
2023-02-18T07:35:12.255Z,15.23
2023-02-18T07:35:48.043Z,18.98
2023-02-18T07:36:22.229Z,14.77
2023-02-18T07:36:55.539Z,14.45
2023-02-18T07:37:29.779Z,14.80
2023-02-18T07:38:05.486Z,15.23
2023-02-18T07:38:41.939Z,15.57
2023-02-18T07:39:21.400Z,12.95
2023-02-18T07:39:55.420Z,11.27
2023-02-18T07:40:32.170Z,13.73
2023-02-18T07:41:06.323Z,14.90
2023-02-18T07:41:55.311Z,15.40
2023-02-18T07:42:30.653Z,12.65
2023-02-18T07:43:03.654Z,14.10
2023-02-18T07:43:39.827Z,14.48
2023-02-18T07:44:14.011Z,13.43
2023-02-18T07:44:52.517Z,14.25
2023-02-18T07:45:27.967Z,16.60
2023-02-18T07:46:07.389Z,13.98
2023-02-18T07:46:42.434Z,13.00